sensor_id;sensor_type;location;lat;lon;timestamp;P1;durP1;ratioP1;P2;durP2;ratioP2
19747;SDS011;10032;51.386;12.516;2023-10-08T00:02:08;2.38;;;1.58;;
19747;SDS011;10032;51.386;12.516;2023-10-08T00:04:34;2.08;;;1.63;;
19747;SDS011;10032;51.386;12.516;2023-10-08T00:07:03;3.17;;;2.40;;
19747;SDS011;10032;51.386;12.516;2023-10-08T00:09:32;3.17;;;1.90;;
19747;SDS011;10032;51.386;12.516;2023-10-08T00:12:02;3.40;;;2.15;;
19747;SDS011;10032;51.386;12.516;2023-10-08T00:14:29;3.50;;;1.98;;
19747;SDS011;10032;51.386;12.516;2023-10-08T00:16:54;4.45;;;2.63;;
19747;SDS011;10032;51.386;12.516;2023-10-08T00:19:19;2.55;;;1.95;;
19747;SDS011;10032;51.386;12.516;2023-10-08T00:21:46;2.55;;;1.77;;
19747;SDS011;10032;51.386;12.516;2023-10-08T00:24:13;3.53;;;2.22;;
19747;SDS011;10032;51.386;12.516;2023-10-08T00:26:39;3.25;;;2.17;;
19747;SDS011;10032;51.386;12.516;2023-10-08T00:29:06;2.58;;;1.98;;
19747;SDS011;10032;51.386;12.516;2023-10-08T00:31:42;2.65;;;2.17;;
19747;SDS011;10032;51.386;12.516;2023-10-08T00:34:10;2.92;;;2.55;;
19747;SDS011;10032;51.386;12.516;2023-10-08T00:36:39;3.83;;;1.85;;
19747;SDS011;10032;51.386;12.516;2023-10-08T00:39:10;3.78;;;2.20;;
19747;SDS011;10032;51.386;12.516;2023-10-08T00:41:45;2.88;;;1.90;;
19747;SDS011;10032;51.386;12.516;2023-10-08T00:44:11;3.58;;;2.38;;
19747;SDS011;10032;51.386;12.516;2023-10-08T00:46:40;3.83;;;2.90;;
19747;SDS011;10032;51.386;12.516;2023-10-08T00:49:15;3.70;;;2.17;;
19747;SDS011;10032;51.386;12.516;2023-10-08T00:52:00;3.35;;;2.60;;
19747;SDS011;10032;51.386;12.516;2023-10-08T00:54:33;3.03;;;2.47;;
19747;SDS011;10032;51.386;12.516;2023-10-08T00:57:05;2.97;;;2.40;;
19747;SDS011;10032;51.386;12.516;2023-10-08T00:59:34;2.63;;;2.25;;
19747;SDS011;10032;51.386;12.516;2023-10-08T01:02:06;3.22;;;2.80;;
19747;SDS011;10032;51.386;12.516;2023-10-08T01:04:33;7.30;;;2.75;;
19747;SDS011;10032;51.386;12.516;2023-10-08T01:07:00;2.30;;;2.10;;
19747;SDS011;10032;51.386;12.516;2023-10-08T01:09:35;3.47;;;2.25;;
19747;SDS011;10032;51.386;12.516;2023-10-08T01:12:13;4.13;;;2.60;;
19747;SDS011;10032;51.386;12.516;2023-10-08T01:14:40;4.30;;;2.30;;
19747;SDS011;10032;51.386;12.516;2023-10-08T01:17:12;2.42;;;2.22;;
19747;SDS011;10032;51.386;12.516;2023-10-08T01:19:40;3.00;;;2.42;;
19747;SDS011;10032;51.386;12.516;2023-10-08T01:22:10;2.30;;;2.10;;
19747;SDS011;10032;51.386;12.516;2023-10-08T01:24:43;2.25;;;2.05;;
19747;SDS011;10032;51.386;12.516;2023-10-08T01:27:18;3.25;;;2.15;;
19747;SDS011;10032;51.386;12.516;2023-10-08T01:29:52;1.65;;;1.20;;
19747;SDS011;10032;51.386;12.516;2023-10-08T01:32:18;1.50;;;1.40;;
19747;SDS011;10032;51.386;12.516;2023-10-08T01:34:45;1.23;;;1.15;;
19747;SDS011;10032;51.386;12.516;2023-10-08T01:37:18;1.45;;;1.15;;
19747;SDS011;10032;51.386;12.516;2023-10-08T01:39:47;0.63;;;0.57;;
19747;SDS011;10032;51.386;12.516;2023-10-08T01:42:15;0.65;;;0.20;;
19747;SDS011;10032;51.386;12.516;2023-10-08T01:44:44;0.05;;;0.05;;
19747;SDS011;10032;51.386;12.516;2023-10-08T01:47:14;0.10;;;0.10;;
19747;SDS011;10032;51.386;12.516;2023-10-08T01:49:41;0.10;;;0.10;;
19747;SDS011;10032;51.386;12.516;2023-10-08T01:52:09;0.00;;;0.00;;
19747;SDS011;10032;51.386;12.516;2023-10-08T01:54:54;0.10;;;0.10;;
19747;SDS011;10032;51.386;12.516;2023-10-08T01:57:20;0.10;;;0.10;;
19747;SDS011;10032;51.386;12.516;2023-10-08T01:59:45;0.00;;;0.00;;
19747;SDS011;10032;51.386;12.516;2023-10-08T02:02:11;0.10;;;0.10;;
19747;SDS011;10032;51.386;12.516;2023-10-08T02:04:46;0.10;;;0.10;;
19747;SDS011;10032;51.386;12.516;2023-10-08T02:07:12;0.40;;;0.22;;
19747;SDS011;10032;51.386;12.516;2023-10-08T02:09:40;0.10;;;0.10;;
19747;SDS011;10032;51.386;12.516;2023-10-08T02:12:06;0.10;;;0.10;;
19747;SDS011;10032;51.386;12.516;2023-10-08T02:14:31;0.95;;;0.10;;
19747;SDS011;10032;51.386;12.516;2023-10-08T02:17:00;0.10;;;0.10;;
19747;SDS011;10032;51.386;12.516;2023-10-08T02:19:31;0.10;;;0.10;;
19747;SDS011;10032;51.386;12.516;2023-10-08T02:21:57;0.00;;;0.00;;
19747;SDS011;10032;51.386;12.516;2023-10-08T02:24:23;0.00;;;0.00;;
19747;SDS011;10032;51.386;12.516;2023-10-08T02:26:53;0.13;;;0.10;;
19747;SDS011;10032;51.386;12.516;2023-10-08T02:29:23;0.05;;;0.05;;
19747;SDS011;10032;51.386;12.516;2023-10-08T02:31:53;0.10;;;0.10;;
19747;SDS011;10032;51.386;12.516;2023-10-08T02:34:19;0.10;;;0.10;;
19747;SDS011;10032;51.386;12.516;2023-10-08T02:36:44;0.10;;;0.10;;
19747;SDS011;10032;51.386;12.516;2023-10-08T02:39:12;0.43;;;0.10;;
19747;SDS011;10032;51.386;12.516;2023-10-08T02:41:50;0.00;;;0.00;;
19747;SDS011;10032;51.386;12.516;2023-10-08T02:44:17;0.00;;;0.00;;
19747;SDS011;10032;51.386;12.516;2023-10-08T02:46:47;0.10;;;0.10;;
19747;SDS011;10032;51.386;12.516;2023-10-08T02:49:14;0.00;;;0.00;;
19747;SDS011;10032;51.386;12.516;2023-10-08T02:51:45;0.10;;;0.10;;
19747;SDS011;10032;51.386;12.516;2023-10-08T02:54:12;0.10;;;0.10;;
19747;SDS011;10032;51.386;12.516;2023-10-08T02:56:46;0.00;;;0.00;;
19747;SDS011;10032;51.386;12.516;2023-10-08T02:59:17;0.10;;;0.10;;
19747;SDS011;10032;51.386;12.516;2023-10-08T03:01:47;0.10;;;0.10;;
19747;SDS011;10032;51.386;12.516;2023-10-08T03:04:14;0.00;;;0.00;;
19747;SDS011;10032;51.386;12.516;2023-10-08T03:06:44;0.00;;;0.00;;
19747;SDS011;10032;51.386;12.516;2023-10-08T03:09:14;0.10;;;0.10;;
19747;SDS011;10032;51.386;12.516;2023-10-08T03:11:40;0.10;;;0.10;;
19747;SDS011;10032;51.386;12.516;2023-10-08T03:14:11;0.10;;;0.10;;
19747;SDS011;10032;51.386;12.516;2023-10-08T03:16:42;0.10;;;0.10;;
19747;SDS011;10032;51.386;12.516;2023-10-08T03:19:07;0.00;;;0.00;;
19747;SDS011;10032;51.386;12.516;2023-10-08T03:21:33;0.10;;;0.10;;
19747;SDS011;10032;51.386;12.516;2023-10-08T03:24:01;0.08;;;0.08;;
19747;SDS011;10032;51.386;12.516;2023-10-08T03:26:32;0.00;;;0.00;;
19747;SDS011;10032;51.386;12.516;2023-10-08T03:29:01;0.10;;;0.10;;
19747;SDS011;10032;51.386;12.516;2023-10-08T03:31:34;0.10;;;0.10;;
19747;SDS011;10032;51.386;12.516;2023-10-08T03:34:11;0.10;;;0.10;;
19747;SDS011;10032;51.386;12.516;2023-10-08T03:36:41;0.10;;;0.10;;
19747;SDS011;10032;51.386;12.516;2023-10-08T03:39:13;0.07;;;0.07;;
19747;SDS011;10032;51.386;12.516;2023-10-08T03:41:41;0.10;;;0.10;;
19747;SDS011;10032;51.386;12.516;2023-10-08T03:44:07;0.00;;;0.00;;
19747;SDS011;10032;51.386;12.516;2023-10-08T03:46:41;0.00;;;0.00;;
19747;SDS011;10032;51.386;12.516;2023-10-08T03:49:10;0.10;;;0.10;;
19747;SDS011;10032;51.386;12.516;2023-10-08T03:51:49;0.00;;;0.00;;
19747;SDS011;10032;51.386;12.516;2023-10-08T03:54:18;0.00;;;0.00;;
19747;SDS011;10032;51.386;12.516;2023-10-08T03:56:44;0.05;;;0.05;;
19747;SDS011;10032;51.386;12.516;2023-10-08T03:59:14;0.10;;;0.10;;
19747;SDS011;10032;51.386;12.516;2023-10-08T04:01:55;0.00;;;0.00;;
19747;SDS011;10032;51.386;12.516;2023-10-08T04:04:26;0.10;;;0.10;;
19747;SDS011;10032;51.386;12.516;2023-10-08T04:07:11;0.33;;;0.10;;
19747;SDS011;10032;51.386;12.516;2023-10-08T04:09:56;0.10;;;0.10;;
19747;SDS011;10032;51.386;12.516;2023-10-08T04:12:35;0.30;;;0.30;;
19747;SDS011;10032;51.386;12.516;2023-10-08T04:15:05;0.10;;;0.10;;
19747;SDS011;10032;51.386;12.516;2023-10-08T04:17:37;0.28;;;0.28;;
19747;SDS011;10032;51.386;12.516;2023-10-08T04:22:54;0.30;;;0.30;;
19747;SDS011;10032;51.386;12.516;2023-10-08T04:25:20;0.20;;;0.20;;
19747;SDS011;10032;51.386;12.516;2023-10-08T04:27:46;0.20;;;0.20;;
19747;SDS011;10032;51.386;12.516;2023-10-08T04:30:14;0.20;;;0.20;;
19747;SDS011;10032;51.386;12.516;2023-10-08T04:32:40;0.23;;;0.23;;
19747;SDS011;10032;51.386;12.516;2023-10-08T04:35:06;0.30;;;0.30;;
19747;SDS011;10032;51.386;12.516;2023-10-08T04:37:33;0.65;;;0.35;;
19747;SDS011;10032;51.386;12.516;2023-10-08T04:39:59;0.20;;;0.20;;
19747;SDS011;10032;51.386;12.516;2023-10-08T04:42:24;0.30;;;0.30;;
19747;SDS011;10032;51.386;12.516;2023-10-08T04:44:52;0.10;;;0.10;;
19747;SDS011;10032;51.386;12.516;2023-10-08T04:47:19;0.23;;;0.23;;
19747;SDS011;10032;51.386;12.516;2023-10-08T04:49:57;0.20;;;0.20;;
19747;SDS011;10032;51.386;12.516;2023-10-08T04:52:22;0.20;;;0.20;;
19747;SDS011;10032;51.386;12.516;2023-10-08T04:54:50;0.40;;;0.20;;
19747;SDS011;10032;51.386;12.516;2023-10-08T04:57:16;0.20;;;0.20;;
19747;SDS011;10032;51.386;12.516;2023-10-08T04:59:43;0.20;;;0.20;;
19747;SDS011;10032;51.386;12.516;2023-10-08T05:02:09;0.10;;;0.10;;
19747;SDS011;10032;51.386;12.516;2023-10-08T05:04:53;0.10;;;0.10;;
19747;SDS011;10032;51.386;12.516;2023-10-08T05:07:37;0.20;;;0.20;;
19747;SDS011;10032;51.386;12.516;2023-10-08T05:10:25;0.30;;;0.30;;
19747;SDS011;10032;51.386;12.516;2023-10-08T05:12:51;1.13;;;0.20;;
19747;SDS011;10032;51.386;12.516;2023-10-08T05:15:40;0.20;;;0.20;;
19747;SDS011;10032;51.386;12.516;2023-10-08T05:18:06;0.30;;;0.30;;
19747;SDS011;10032;51.386;12.516;2023-10-08T05:20:44;0.20;;;0.20;;
19747;SDS011;10032;51.386;12.516;2023-10-08T05:23:11;0.30;;;0.30;;
19747;SDS011;10032;51.386;12.516;2023-10-08T05:25:50;0.70;;;0.70;;
19747;SDS011;10032;51.386;12.516;2023-10-08T05:28:28;0.30;;;0.30;;
19747;SDS011;10032;51.386;12.516;2023-10-08T05:30:55;0.70;;;0.40;;
19747;SDS011;10032;51.386;12.516;2023-10-08T05:33:46;0.20;;;0.20;;
19747;SDS011;10032;51.386;12.516;2023-10-08T05:36:15;0.37;;;0.30;;
19747;SDS011;10032;51.386;12.516;2023-10-08T05:38:44;0.30;;;0.30;;
19747;SDS011;10032;51.386;12.516;2023-10-08T05:41:29;0.10;;;0.10;;
19747;SDS011;10032;51.386;12.516;2023-10-08T05:44:04;0.43;;;0.30;;
19747;SDS011;10032;51.386;12.516;2023-10-08T05:46:48;0.20;;;0.20;;
19747;SDS011;10032;51.386;12.516;2023-10-08T05:49:31;0.47;;;0.20;;
19747;SDS011;10032;51.386;12.516;2023-10-08T05:51:57;0.20;;;0.20;;
19747;SDS011;10032;51.386;12.516;2023-10-08T05:54:29;0.50;;;0.40;;
19747;SDS011;10032;51.386;12.516;2023-10-08T05:56:59;0.50;;;0.30;;
19747;SDS011;10032;51.386;12.516;2023-10-08T05:59:35;0.20;;;0.20;;
19747;SDS011;10032;51.386;12.516;2023-10-08T06:02:18;0.20;;;0.20;;
19747;SDS011;10032;51.386;12.516;2023-10-08T06:05:00;0.20;;;0.20;;
19747;SDS011;10032;51.386;12.516;2023-10-08T06:07:48;0.40;;;0.30;;
19747;SDS011;10032;51.386;12.516;2023-10-08T06:10:18;0.40;;;0.28;;
19747;SDS011;10032;51.386;12.516;2023-10-08T06:12:56;0.27;;;0.20;;
19747;SDS011;10032;51.386;12.516;2023-10-08T06:18:29;0.20;;;0.20;;
19747;SDS011;10032;51.386;12.516;2023-10-08T06:21:06;0.30;;;0.30;;
19747;SDS011;10032;51.386;12.516;2023-10-08T06:23:33;0.40;;;0.30;;
19747;SDS011;10032;51.386;12.516;2023-10-08T06:26:02;0.20;;;0.20;;
19747;SDS011;10032;51.386;12.516;2023-10-08T06:28:34;0.40;;;0.40;;
19747;SDS011;10032;51.386;12.516;2023-10-08T06:31:00;0.37;;;0.37;;
19747;SDS011;10032;51.386;12.516;2023-10-08T06:33:28;0.50;;;0.50;;
19747;SDS011;10032;51.386;12.516;2023-10-08T06:35:58;0.43;;;0.43;;
19747;SDS011;10032;51.386;12.516;2023-10-08T06:38:45;0.77;;;0.73;;
19747;SDS011;10032;51.386;12.516;2023-10-08T06:41:14;1.77;;;0.80;;
19747;SDS011;10032;51.386;12.516;2023-10-08T06:43:43;1.10;;;1.00;;
19747;SDS011;10032;51.386;12.516;2023-10-08T06:46:15;1.00;;;1.00;;
19747;SDS011;10032;51.386;12.516;2023-10-08T06:48:44;0.93;;;0.60;;
19747;SDS011;10032;51.386;12.516;2023-10-08T06:51:11;1.00;;;0.70;;
19747;SDS011;10032;51.386;12.516;2023-10-08T06:53:43;2.23;;;1.17;;
19747;SDS011;10032;51.386;12.516;2023-10-08T06:56:10;0.57;;;0.50;;
19747;SDS011;10032;51.386;12.516;2023-10-08T06:58:37;0.50;;;0.50;;
19747;SDS011;10032;51.386;12.516;2023-10-08T07:01:03;1.47;;;0.70;;
19747;SDS011;10032;51.386;12.516;2023-10-08T07:03:30;0.67;;;0.47;;
19747;SDS011;10032;51.386;12.516;2023-10-08T07:05:58;1.30;;;0.47;;
19747;SDS011;10032;51.386;12.516;2023-10-08T07:08:26;0.50;;;0.50;;
19747;SDS011;10032;51.386;12.516;2023-10-08T07:10:54;1.00;;;0.60;;
19747;SDS011;10032;51.386;12.516;2023-10-08T07:13:22;1.13;;;0.50;;
19747;SDS011;10032;51.386;12.516;2023-10-08T07:15:53;2.63;;;0.83;;
19747;SDS011;10032;51.386;12.516;2023-10-08T07:18:20;1.37;;;0.87;;
19747;SDS011;10032;51.386;12.516;2023-10-08T07:20:52;0.63;;;0.60;;
19747;SDS011;10032;51.386;12.516;2023-10-08T07:23:22;0.87;;;0.63;;
19747;SDS011;10032;51.386;12.516;2023-10-08T07:25:53;0.60;;;0.60;;
19747;SDS011;10032;51.386;12.516;2023-10-08T07:28:42;0.40;;;0.40;;
19747;SDS011;10032;51.386;12.516;2023-10-08T07:31:15;1.20;;;0.70;;
19747;SDS011;10032;51.386;12.516;2023-10-08T07:33:55;2.27;;;1.10;;
19747;SDS011;10032;51.386;12.516;2023-10-08T07:36:24;0.87;;;0.80;;
19747;SDS011;10032;51.386;12.516;2023-10-08T07:38:54;1.37;;;0.80;;
19747;SDS011;10032;51.386;12.516;2023-10-08T07:41:20;1.53;;;0.63;;
19747;SDS011;10032;51.386;12.516;2023-10-08T07:43:46;0.90;;;0.53;;
19747;SDS011;10032;51.386;12.516;2023-10-08T07:46:22;1.00;;;0.97;;
19747;SDS011;10032;51.386;12.516;2023-10-08T07:48:48;1.63;;;1.03;;
19747;SDS011;10032;51.386;12.516;2023-10-08T07:51:15;1.47;;;0.70;;
19747;SDS011;10032;51.386;12.516;2023-10-08T07:53:42;1.47;;;0.60;;
19747;SDS011;10032;51.386;12.516;2023-10-08T07:56:08;0.63;;;0.63;;
19747;SDS011;10032;51.386;12.516;2023-10-08T07:58:34;0.60;;;0.60;;
19747;SDS011;10032;51.386;12.516;2023-10-08T08:01:06;1.43;;;1.03;;
19747;SDS011;10032;51.386;12.516;2023-10-08T08:03:38;1.30;;;1.03;;
19747;SDS011;10032;51.386;12.516;2023-10-08T08:06:10;0.60;;;0.60;;
19747;SDS011;10032;51.386;12.516;2023-10-08T08:08:36;0.87;;;0.70;;
19747;SDS011;10032;51.386;12.516;2023-10-08T08:11:03;1.53;;;0.83;;
19747;SDS011;10032;51.386;12.516;2023-10-08T08:13:33;2.30;;;1.00;;
19747;SDS011;10032;51.386;12.516;2023-10-08T08:15:59;1.30;;;0.67;;
19747;SDS011;10032;51.386;12.516;2023-10-08T08:18:35;2.53;;;1.80;;
19747;SDS011;10032;51.386;12.516;2023-10-08T08:21:01;1.20;;;1.13;;
19747;SDS011;10032;51.386;12.516;2023-10-08T08:23:27;1.57;;;1.40;;
19747;SDS011;10032;51.386;12.516;2023-10-08T08:25:54;1.07;;;1.00;;
19747;SDS011;10032;51.386;12.516;2023-10-08T08:28:37;1.83;;;0.80;;
19747;SDS011;10032;51.386;12.516;2023-10-08T08:31:06;2.77;;;1.10;;
19747;SDS011;10032;51.386;12.516;2023-10-08T08:33:39;0.90;;;0.90;;
19747;SDS011;10032;51.386;12.516;2023-10-08T08:36:25;1.70;;;0.80;;
19747;SDS011;10032;51.386;12.516;2023-10-08T08:38:52;1.00;;;0.77;;
19747;SDS011;10032;51.386;12.516;2023-10-08T08:41:18;1.20;;;0.90;;
19747;SDS011;10032;51.386;12.516;2023-10-08T08:43:49;1.07;;;0.80;;
19747;SDS011;10032;51.386;12.516;2023-10-08T08:46:41;3.20;;;0.80;;
19747;SDS011;10032;51.386;12.516;2023-10-08T08:49:09;1.53;;;1.03;;
19747;SDS011;10032;51.386;12.516;2023-10-08T08:51:37;1.43;;;1.10;;
19747;SDS011;10032;51.386;12.516;2023-10-08T08:54:03;1.13;;;0.93;;
19747;SDS011;10032;51.386;12.516;2023-10-08T08:56:36;0.90;;;0.80;;
19747;SDS011;10032;51.386;12.516;2023-10-08T08:59:06;1.03;;;0.93;;
19747;SDS011;10032;51.386;12.516;2023-10-08T09:01:36;1.83;;;1.67;;
19747;SDS011;10032;51.386;12.516;2023-10-08T09:04:04;1.47;;;0.77;;
19747;SDS011;10032;51.386;12.516;2023-10-08T09:06:39;1.77;;;1.07;;
19747;SDS011;10032;51.386;12.516;2023-10-08T09:09:05;1.83;;;1.20;;
19747;SDS011;10032;51.386;12.516;2023-10-08T09:11:51;2.00;;;1.10;;
19747;SDS011;10032;51.386;12.516;2023-10-08T09:14:20;1.37;;;0.87;;
19747;SDS011;10032;51.386;12.516;2023-10-08T09:16:50;2.07;;;1.53;;
19747;SDS011;10032;51.386;12.516;2023-10-08T09:19:15;1.57;;;1.27;;
19747;SDS011;10032;51.386;12.516;2023-10-08T09:22:05;3.10;;;2.00;;
19747;SDS011;10032;51.386;12.516;2023-10-08T09:24:33;1.05;;;1.02;;
19747;SDS011;10032;51.386;12.516;2023-10-08T09:27:01;1.47;;;1.20;;
19747;SDS011;10032;51.386;12.516;2023-10-08T09:29:31;3.67;;;1.40;;
19747;SDS011;10032;51.386;12.516;2023-10-08T09:31:57;1.95;;;0.98;;
19747;SDS011;10032;51.386;12.516;2023-10-08T09:34:28;2.73;;;1.07;;
19747;SDS011;10032;51.386;12.516;2023-10-08T09:36:58;2.17;;;1.60;;
19747;SDS011;10032;51.386;12.516;2023-10-08T09:39:28;1.57;;;1.47;;
19747;SDS011;10032;51.386;12.516;2023-10-08T09:41:56;2.03;;;1.45;;
19747;SDS011;10032;51.386;12.516;2023-10-08T09:44:23;1.90;;;1.80;;
19747;SDS011;10032;51.386;12.516;2023-10-08T09:46:53;1.77;;;1.30;;
19747;SDS011;10032;51.386;12.516;2023-10-08T09:49:24;1.00;;;1.00;;
19747;SDS011;10032;51.386;12.516;2023-10-08T09:51:57;1.42;;;1.17;;
19747;SDS011;10032;51.386;12.516;2023-10-08T09:54:31;1.75;;;1.30;;
19747;SDS011;10032;51.386;12.516;2023-10-08T09:57:04;1.70;;;1.30;;
19747;SDS011;10032;51.386;12.516;2023-10-08T09:59:31;1.48;;;1.15;;
19747;SDS011;10032;51.386;12.516;2023-10-08T10:01:58;1.88;;;1.27;;
19747;SDS011;10032;51.386;12.516;2023-10-08T10:04:25;1.40;;;1.30;;
19747;SDS011;10032;51.386;12.516;2023-10-08T10:06:53;2.20;;;1.13;;
19747;SDS011;10032;51.386;12.516;2023-10-08T10:09:23;1.83;;;1.33;;
19747;SDS011;10032;51.386;12.516;2023-10-08T10:11:49;1.45;;;1.35;;
19747;SDS011;10032;51.386;12.516;2023-10-08T10:14:18;3.40;;;1.70;;
19747;SDS011;10032;51.386;12.516;2023-10-08T10:19:37;1.85;;;1.50;;
19747;SDS011;10032;51.386;12.516;2023-10-08T10:22:03;1.92;;;1.80;;
19747;SDS011;10032;51.386;12.516;2023-10-08T10:24:35;1.45;;;1.30;;
19747;SDS011;10032;51.386;12.516;2023-10-08T10:27:15;2.42;;;1.40;;
19747;SDS011;10032;51.386;12.516;2023-10-08T10:29:41;2.20;;;1.13;;
19747;SDS011;10032;51.386;12.516;2023-10-08T10:32:10;1.90;;;1.30;;
19747;SDS011;10032;51.386;12.516;2023-10-08T10:34:42;1.58;;;1.35;;
19747;SDS011;10032;51.386;12.516;2023-10-08T10:37:09;2.05;;;1.63;;
19747;SDS011;10032;51.386;12.516;2023-10-08T10:39:50;1.92;;;1.15;;
19747;SDS011;10032;51.386;12.516;2023-10-08T10:42:18;2.28;;;1.25;;
19747;SDS011;10032;51.386;12.516;2023-10-08T10:44:47;1.27;;;1.17;;
19747;SDS011;10032;51.386;12.516;2023-10-08T10:47:17;1.88;;;1.73;;
19747;SDS011;10032;51.386;12.516;2023-10-08T10:49:43;2.97;;;1.88;;
19747;SDS011;10032;51.386;12.516;2023-10-08T10:52:24;1.52;;;1.20;;
19747;SDS011;10032;51.386;12.516;2023-10-08T10:55:01;1.52;;;1.42;;
19747;SDS011;10032;51.386;12.516;2023-10-08T10:57:53;1.60;;;1.50;;
19747;SDS011;10032;51.386;12.516;2023-10-08T11:00:28;1.75;;;1.60;;
19747;SDS011;10032;51.386;12.516;2023-10-08T11:03:00;1.23;;;1.00;;
19747;SDS011;10032;51.386;12.516;2023-10-08T11:05:45;1.15;;;1.05;;
19747;SDS011;10032;51.386;12.516;2023-10-08T11:08:16;1.63;;;1.30;;
19747;SDS011;10032;51.386;12.516;2023-10-08T11:10:43;1.38;;;1.27;;
19747;SDS011;10032;51.386;12.516;2023-10-08T11:13:16;1.58;;;1.27;;
19747;SDS011;10032;51.386;12.516;2023-10-08T11:15:46;1.60;;;1.48;;
19747;SDS011;10032;51.386;12.516;2023-10-08T11:18:17;1.95;;;1.75;;
19747;SDS011;10032;51.386;12.516;2023-10-08T11:20:45;1.60;;;1.50;;
19747;SDS011;10032;51.386;12.516;2023-10-08T11:26:00;2.50;;;1.80;;
19747;SDS011;10032;51.386;12.516;2023-10-08T11:28:29;1.75;;;1.52;;
19747;SDS011;10032;51.386;12.516;2023-10-08T11:30:59;1.75;;;1.50;;
19747;SDS011;10032;51.386;12.516;2023-10-08T11:33:33;1.65;;;1.50;;
19747;SDS011;10032;51.386;12.516;2023-10-08T11:36:04;3.03;;;2.50;;
19747;SDS011;10032;51.386;12.516;2023-10-08T11:38:43;1.65;;;1.52;;
19747;SDS011;10032;51.386;12.516;2023-10-08T11:41:13;2.75;;;1.75;;
19747;SDS011;10032;51.386;12.516;2023-10-08T11:43:46;2.58;;;1.73;;
19747;SDS011;10032;51.386;12.516;2023-10-08T11:46:19;3.67;;;1.42;;
19747;SDS011;10032;51.386;12.516;2023-10-08T11:49:04;2.55;;;1.70;;
19747;SDS011;10032;51.386;12.516;2023-10-08T11:51:42;1.60;;;1.50;;
19747;SDS011;10032;51.386;12.516;2023-10-08T11:54:08;2.03;;;1.40;;
19747;SDS011;10032;51.386;12.516;2023-10-08T11:56:36;1.48;;;1.33;;
19747;SDS011;10032;51.386;12.516;2023-10-08T11:59:03;1.80;;;1.55;;
19747;SDS011;10032;51.386;12.516;2023-10-08T12:01:33;1.40;;;1.30;;
19747;SDS011;10032;51.386;12.516;2023-10-08T12:04:07;2.53;;;1.70;;
19747;SDS011;10032;51.386;12.516;2023-10-08T12:06:38;4.30;;;1.75;;
19747;SDS011;10032;51.386;12.516;2023-10-08T12:09:04;1.98;;;1.38;;
19747;SDS011;10032;51.386;12.516;2023-10-08T12:11:37;1.83;;;1.73;;
19747;SDS011;10032;51.386;12.516;2023-10-08T12:14:03;1.67;;;1.35;;
19747;SDS011;10032;51.386;12.516;2023-10-08T12:16:28;1.67;;;1.35;;
19747;SDS011;10032;51.386;12.516;2023-10-08T12:19:00;1.90;;;1.38;;
19747;SDS011;10032;51.386;12.516;2023-10-08T12:21:30;3.65;;;1.75;;
19747;SDS011;10032;51.386;12.516;2023-10-08T12:23:59;1.98;;;1.40;;
19747;SDS011;10032;51.386;12.516;2023-10-08T12:26:30;2.50;;;1.52;;
19747;SDS011;10032;51.386;12.516;2023-10-08T12:28:56;4.28;;;1.77;;
19747;SDS011;10032;51.386;12.516;2023-10-08T12:31:22;4.35;;;1.77;;
19747;SDS011;10032;51.386;12.516;2023-10-08T12:33:49;2.25;;;1.77;;
19747;SDS011;10032;51.386;12.516;2023-10-08T12:36:18;1.70;;;1.55;;
19747;SDS011;10032;51.386;12.516;2023-10-08T12:38:51;2.20;;;2.00;;
19747;SDS011;10032;51.386;12.516;2023-10-08T12:41:22;2.50;;;1.75;;
19747;SDS011;10032;51.386;12.516;2023-10-08T12:43:50;3.28;;;1.33;;
19747;SDS011;10032;51.386;12.516;2023-10-08T12:46:17;1.38;;;1.17;;
19747;SDS011;10032;51.386;12.516;2023-10-08T12:48:46;1.70;;;1.23;;
19747;SDS011;10032;51.386;12.516;2023-10-08T12:51:17;0.90;;;0.90;;
19747;SDS011;10032;51.386;12.516;2023-10-08T12:53:43;2.45;;;1.50;;
19747;SDS011;10032;51.386;12.516;2023-10-08T12:56:16;1.52;;;1.35;;
19747;SDS011;10032;51.386;12.516;2023-10-08T12:58:46;1.20;;;1.10;;
19747;SDS011;10032;51.386;12.516;2023-10-08T13:01:15;1.92;;;1.75;;
19747;SDS011;10032;51.386;12.516;2023-10-08T13:03:43;1.38;;;1.27;;
19747;SDS011;10032;51.386;12.516;2023-10-08T13:06:19;1.30;;;1.15;;
19747;SDS011;10032;51.386;12.516;2023-10-08T13:08:53;1.20;;;1.00;;
19747;SDS011;10032;51.386;12.516;2023-10-08T13:11:20;2.30;;;1.30;;
19747;SDS011;10032;51.386;12.516;2023-10-08T13:13:56;1.92;;;1.30;;
19747;SDS011;10032;51.386;12.516;2023-10-08T13:16:22;1.70;;;1.52;;
19747;SDS011;10032;51.386;12.516;2023-10-08T13:18:50;1.70;;;1.30;;
19747;SDS011;10032;51.386;12.516;2023-10-08T13:21:16;2.08;;;1.20;;
19747;SDS011;10032;51.386;12.516;2023-10-08T13:23:44;1.75;;;1.08;;
19747;SDS011;10032;51.386;12.516;2023-10-08T13:26:09;1.38;;;1.20;;
19747;SDS011;10032;51.386;12.516;2023-10-08T13:28:41;2.45;;;1.60;;
19747;SDS011;10032;51.386;12.516;2023-10-08T13:31:07;1.52;;;1.42;;
19747;SDS011;10032;51.386;12.516;2023-10-08T13:33:36;1.05;;;0.95;;
19747;SDS011;10032;51.386;12.516;2023-10-08T13:36:07;2.17;;;1.05;;
19747;SDS011;10032;51.386;12.516;2023-10-08T13:38:33;2.75;;;1.38;;
19747;SDS011;10032;51.386;12.516;2023-10-08T13:41:05;1.65;;;1.45;;
19747;SDS011;10032;51.386;12.516;2023-10-08T13:43:51;1.38;;;1.20;;
19747;SDS011;10032;51.386;12.516;2023-10-08T13:46:19;1.58;;;1.48;;
19747;SDS011;10032;51.386;12.516;2023-10-08T13:48:48;1.42;;;1.33;;
19747;SDS011;10032;51.386;12.516;2023-10-08T13:51:18;2.00;;;1.60;;
19747;SDS011;10032;51.386;12.516;2023-10-08T13:53:54;2.65;;;1.20;;
19747;SDS011;10032;51.386;12.516;2023-10-08T13:56:24;2.33;;;1.77;;
19747;SDS011;10032;51.386;12.516;2023-10-08T13:58:52;1.85;;;1.50;;
19747;SDS011;10032;51.386;12.516;2023-10-08T14:01:29;1.73;;;1.63;;
19747;SDS011;10032;51.386;12.516;2023-10-08T14:03:58;1.73;;;1.50;;
19747;SDS011;10032;51.386;12.516;2023-10-08T14:06:31;1.80;;;1.58;;
19747;SDS011;10032;51.386;12.516;2023-10-08T14:08:57;2.25;;;1.95;;
19747;SDS011;10032;51.386;12.516;2023-10-08T14:11:25;2.25;;;1.50;;
19747;SDS011;10032;51.386;12.516;2023-10-08T14:13:55;3.15;;;1.63;;
19747;SDS011;10032;51.386;12.516;2023-10-08T14:16:21;2.22;;;1.80;;
19747;SDS011;10032;51.386;12.516;2023-10-08T14:18:53;1.63;;;1.30;;
19747;SDS011;10032;51.386;12.516;2023-10-08T14:21:22;2.47;;;1.75;;
19747;SDS011;10032;51.386;12.516;2023-10-08T14:23:55;2.50;;;1.60;;
19747;SDS011;10032;51.386;12.516;2023-10-08T14:26:27;3.28;;;1.90;;
19747;SDS011;10032;51.386;12.516;2023-10-08T14:29:00;1.60;;;1.50;;
19747;SDS011;10032;51.386;12.516;2023-10-08T14:31:32;2.28;;;1.73;;
19747;SDS011;10032;51.386;12.516;2023-10-08T14:33:58;2.53;;;1.40;;
19747;SDS011;10032;51.386;12.516;2023-10-08T14:36:30;3.80;;;2.15;;
19747;SDS011;10032;51.386;12.516;2023-10-08T14:39:16;3.45;;;1.50;;
19747;SDS011;10032;51.386;12.516;2023-10-08T14:42:02;1.88;;;1.45;;
19747;SDS011;10032;51.386;12.516;2023-10-08T14:44:46;1.60;;;1.23;;
19747;SDS011;10032;51.386;12.516;2023-10-08T14:47:12;1.92;;;1.35;;
19747;SDS011;10032;51.386;12.516;2023-10-08T14:49:38;1.77;;;1.20;;
19747;SDS011;10032;51.386;12.516;2023-10-08T14:52:04;3.10;;;1.60;;
19747;SDS011;10032;51.386;12.516;2023-10-08T14:54:30;1.45;;;1.20;;
19747;SDS011;10032;51.386;12.516;2023-10-08T14:56:56;1.30;;;1.20;;
19747;SDS011;10032;51.386;12.516;2023-10-08T14:59:22;1.65;;;1.40;;
19747;SDS011;10032;51.386;12.516;2023-10-08T15:01:48;2.03;;;1.40;;
19747;SDS011;10032;51.386;12.516;2023-10-08T15:04:15;5.45;;;3.83;;
19747;SDS011;10032;51.386;12.516;2023-10-08T15:06:41;5.82;;;4.00;;